Time;durP1;ratioP1;P1;durP2;ratioP2;P2;SDS_P1;SDS_P2;PMS_P1;PMS_P2;Temp;Humidity;BMP_temperature;BMP_pressure;BME280_temperature;BME280_humidity;BME280_pressure;Samples;Min_cycle;Max_cycle;Signal;HPM_P1;HPM_P2
2021/06/16 00:01:28;;;;;;;6.83;3.20;;;16.90;70.10;;;;;;5117467;27;20441;-69
2021/06/16 00:03:55;;;;;;;9.10;3.70;;;16.90;70.70;;;;;;5112844;28;20885;-68
2021/06/16 00:06:29;;;;;;;6.63;3.30;;;16.90;71.00;;;;;;5127651;28;20436;-68
2021/06/16 00:08:56;;;;;;;5.30;3.03;;;17.00;71.10;;;;;;5133364;28;20848;-68
2021/06/16 00:11:24;;;;;;;6.03;3.07;;;17.00;71.20;;;;;;5117627;28;20441;-68
2021/06/16 00:13:53;;;;;;;5.80;3.33;;;17.00;71.20;;;;;;5113003;28;20430;-68
2021/06/16 00:16:20;;;;;;;4.50;3.13;;;17.00;70.70;;;;;;5127022;28;20440;-68
2021/06/16 00:18:48;;;;;;;4.30;3.30;;;17.00;70.50;;;;;;5133073;28;20935;-68
2021/06/16 00:21:15;;;;;;;5.57;3.40;;;16.90;70.30;;;;;;5119559;28;20449;-68
2021/06/16 00:23:47;;;;;;;3.63;3.20;;;16.80;70.60;;;;;;5112621;28;20441;-68
2021/06/16 00:26:15;;;;;;;6.27;3.10;;;16.80;71.10;;;;;;5127961;28;20449;-68
2021/06/16 00:28:42;;;;;;;4.40;3.47;;;16.70;71.10;;;;;;5133034;28;20464;-68
2021/06/16 00:31:11;;;;;;;5.47;3.17;;;16.70;71.60;;;;;;5118221;28;20877;-69
2021/06/16 00:33:38;;;;;;;5.23;3.40;;;16.70;71.70;;;;;;5114875;28;20857;-69
2021/06/16 00:36:06;;;;;;;5.67;3.23;;;16.70;71.90;;;;;;5130368;27;20433;-68
2021/06/16 00:38:33;;;;;;;6.00;3.13;;;16.60;72.20;;;;;;5134379;27;20438;-68
2021/06/16 00:41:00;;;;;;;3.67;2.93;;;16.60;72.20;;;;;;5116818;28;20486;-68
2021/06/16 00:43:27;;;;;;;5.03;3.00;;;16.60;73.00;;;;;;5127017;27;20462;-68
2021/06/16 00:45:54;;;;;;;4.70;3.40;;;16.50;72.70;;;;;;5124378;27;20445;-68
2021/06/16 00:48:26;;;;;;;6.33;3.97;;;16.50;72.60;;;;;;5125416;27;20485;-69
2021/06/16 00:50:57;;;;;;;4.10;3.53;;;16.50;72.80;;;;;;5136888;27;20441;-68
2021/06/16 00:53:24;;;;;;;4.67;3.27;;;16.40;72.90;;;;;;5126990;27;20598;-68
2021/06/16 00:55:56;;;;;;;5.73;3.63;;;16.40;73.60;;;;;;5127607;27;20447;-68
2021/06/16 00:58:23;;;;;;;3.53;3.10;;;16.30;73.70;;;;;;5128017;27;20434;-68
2021/06/16 01:00:59;;;;;;;4.70;3.50;;;16.30;74.00;;;;;;5115962;28;20499;-68
2021/06/16 01:03:34;;;;;;;4.27;2.87;;;16.30;74.10;;;;;;5124087;27;20437;-68
2021/06/16 01:06:06;;;;;;;5.20;3.53;;;16.30;74.10;;;;;;5134939;27;20469;-68
2021/06/16 01:08:37;;;;;;;5.20;2.93;;;16.30;74.40;;;;;;5119496;27;20835;-68
2021/06/16 01:11:08;;;;;;;3.60;2.97;;;16.30;74.90;;;;;;5116159;28;20779;-68
2021/06/16 01:13:40;;;;;;;5.13;3.37;;;16.20;75.40;;;;;;5131785;27;20490;-69
2021/06/16 01:16:12;;;;;;;6.70;3.37;;;16.20;76.00;;;;;;5130531;27;20487;-69
2021/06/16 01:18:46;;;;;;;6.53;4.00;;;16.20;76.30;;;;;;5132582;27;20452;-68
2021/06/16 01:21:14;;;;;;;9.73;6.03;;;16.20;76.40;;;;;;5129898;27;20537;-68
2021/06/16 01:23:53;;;;;;;7.73;4.50;;;16.30;76.30;;;;;;5115860;28;20438;-68
2021/06/16 01:26:29;;;;;;;4.40;3.87;;;16.30;76.40;;;;;;5121175;27;20482;-68
2021/06/16 01:29:01;;;;;;;7.43;3.33;;;16.20;75.40;;;;;;5116363;27;20507;-68
2021/06/16 01:31:31;;;;;;;4.90;4.03;;;16.20;75.20;;;;;;5122173;27;20433;-68
2021/06/16 01:33:59;;;;;;;9.00;4.07;;;16.20;75.00;;;;;;5136138;27;20477;-68
2021/06/16 01:36:27;;;;;;;7.60;3.67;;;16.10;75.30;;;;;;5129667;27;20997;-68
2021/06/16 01:39:00;;;;;;;4.43;3.30;;;16.10;75.40;;;;;;5133865;27;20433;-68
2021/06/16 01:41:29;;;;;;;4.80;3.87;;;16.10;75.60;;;;;;5129599;27;20496;-68
2021/06/16 01:43:57;;;;;;;4.70;3.40;;;16.00;75.60;;;;;;5114875;28;20427;-68
2021/06/16 01:46:26;;;;;;;4.40;3.50;;;16.00;75.70;;;;;;5116188;27;20529;-68
2021/06/16 01:48:54;;;;;;;7.83;3.93;;;15.90;75.90;;;;;;5115081;28;20445;-68
2021/06/16 01:51:24;;;;;;;6.63;4.17;;;15.80;76.50;;;;;;5117985;27;20425;-70
2021/06/16 01:53:52;;;;;;;4.90;3.20;;;15.80;76.60;;;;;;5135635;27;20468;-68
2021/06/16 01:56:24;;;;;;;5.30;3.63;;;15.80;76.60;;;;;;5132740;27;20445;-68
2021/06/16 01:58:55;;;;;;;5.20;3.93;;;15.80;77.20;;;;;;5114966;28;20487;-68
2021/06/16 02:01:25;;;;;;;4.57;3.80;;;15.80;77.50;;;;;;5116841;27;20481;-68
2021/06/16 02:03:54;;;;;;;5.80;3.63;;;15.80;78.30;;;;;;5135593;27;20437;-68
2021/06/16 02:06:26;;;;;;;4.80;3.63;;;15.80;76.40;;;;;;5132311;27;20429;-68
2021/06/16 02:08:53;;;;;;;6.03;3.03;;;15.80;76.60;;;;;;5114795;28;20431;-68
2021/06/16 02:11:23;;;;;;;4.50;3.10;;;15.80;76.40;;;;;;5120913;27;20433;-68
2021/06/16 02:13:55;;;;;;;4.43;4.03;;;15.70;76.60;;;;;;5134762;27;20503;-69
2021/06/16 02:16:29;;;;;;;4.60;4.00;;;15.70;77.20;;;;;;5132085;27;20991;-67
2021/06/16 02:19:03;;;;;;;4.50;3.03;;;15.60;77.70;;;;;;5114636;28;20544;-68
2021/06/16 02:21:30;;;;;;;4.57;3.17;;;15.50;77.90;;;;;;5119993;27;20473;-68
2021/06/16 02:23:58;;;;;;;4.40;4.00;;;15.50;78.40;;;;;;5135159;27;20437;-68
2021/06/16 02:26:25;;;;;;;6.20;3.80;;;15.50;78.40;;;;;;5128965;27;20438;-68
2021/06/16 02:28:52;;;;;;;4.30;3.90;;;15.60;78.50;;;;;;5114335;28;20434;-68
2021/06/16 02:31:20;;;;;;;4.30;3.10;;;15.60;78.50;;;;;;5118227;27;20433;-68
2021/06/16 02:33:50;;;;;;;4.20;3.77;;;15.60;78.00;;;;;;5135001;27;20441;-68
2021/06/16 02:36:18;;;;;;;5.43;4.00;;;15.50;78.20;;;;;;5132168;27;20525;-68
2021/06/16 02:38:46;;;;;;;4.07;3.20;;;15.40;78.30;;;;;;5134738;27;20434;-68
2021/06/16 02:41:15;;;;;;;4.30;3.70;;;15.40;78.00;;;;;;5128481;27;20478;-68
2021/06/16 02:43:42;;;;;;;5.27;3.80;;;15.40;78.40;;;;;;5114049;28;20434;-68
2021/06/16 02:46:12;;;;;;;5.47;4.97;;;15.40;78.70;;;;;;5118541;27;20434;-68
2021/06/16 02:48:42;;;;;;;5.97;4.50;;;15.40;78.70;;;;;;5134617;27;20434;-67
2021/06/16 02:51:11;;;;;;;4.60;4.20;;;15.40;79.40;;;;;;5129540;27;20442;-69
2021/06/16 02:53:40;;;;;;;12.43;6.27;;;15.40;79.90;;;;;;5113868;28;20426;-67
2021/06/16 02:56:11;;;;;;;7.23;4.90;;;15.30;80.20;;;;;;5116828;27;20437;-68
2021/06/16 02:58:41;;;;;;;5.23;3.33;;;15.30;80.60;;;;;;5134482;27;20425;-68
2021/06/16 03:01:11;;;;;;;9.73;3.93;;;15.30;81.00;;;;;;5130185;27;20478;-67
2021/06/16 03:03:42;;;;;;;5.40;3.60;;;15.30;80.80;;;;;;5113815;28;20533;-68
2021/06/16 03:06:13;;;;;;;6.23;5.63;;;15.30;81.20;;;;;;5117520;27;20448;-67
2021/06/16 03:08:43;;;;;;;3.93;3.63;;;15.30;80.90;;;;;;5134223;27;20537;-67
2021/06/16 03:11:12;;;;;;;4.03;3.43;;;15.30;80.50;;;;;;5130378;27;20434;-68
2021/06/16 03:13:39;;;;;;;3.70;3.20;;;15.20;80.50;;;;;;5113906;28;20434;-68
2021/06/16 03:16:08;;;;;;;4.70;3.20;;;15.20;80.40;;;;;;5115809;27;20438;-67
2021/06/16 03:18:36;;;;;;;5.03;4.63;;;15.20;79.90;;;;;;5134147;27;20520;-68
2021/06/16 03:21:06;;;;;;;5.20;4.73;;;15.20;80.30;;;;;;5131740;27;20561;-67
2021/06/16 03:23:37;;;;;;;5.53;3.37;;;15.30;80.30;;;;;;5113442;28;20989;-67
2021/06/16 03:26:05;;;;;;;4.23;3.40;;;15.30;80.50;;;;;;5115409;27;20430;-68
2021/06/16 03:28:34;;;;;;;3.73;3.30;;;15.30;80.30;;;;;;5133889;27;20497;-68
2021/06/16 03:31:02;;;;;;;4.13;3.23;;;15.40;80.30;;;;;;5132576;27;20565;-68
2021/06/16 03:33:30;;;;;;;6.97;3.87;;;15.40;80.00;;;;;;5113371;28;20434;-67
2021/06/16 03:35:58;;;;;;;4.10;2.83;;;15.40;79.80;;;;;;5113601;28;20434;-68
2021/06/16 03:38:27;;;;;;;5.13;2.70;;;15.30;79.30;;;;;;5113250;28;20962;-67
2021/06/16 03:40:55;;;;;;;4.73;3.50;;;15.30;79.60;;;;;;5114181;27;20477;-69
2021/06/16 03:43:23;;;;;;;3.83;2.80;;;15.30;79.60;;;;;;5133550;27;20425;-67
2021/06/16 03:45:54;;;;;;;4.73;3.40;;;15.30;79.80;;;;;;5132568;27;20780;-70
2021/06/16 03:48:24;;;;;;;5.40;3.93;;;15.30;79.60;;;;;;5133012;27;20437;-67
2021/06/16 03:50:52;;;;;;;4.57;3.80;;;15.30;79.30;;;;;;5133121;27;20437;-68
2021/06/16 03:53:20;;;;;;;5.60;4.10;;;15.20;79.40;;;;;;5092662;28;20469;-67
2021/06/16 03:55:50;;;;;;;4.20;3.30;;;15.20;79.80;;;;;;5092577;28;20439;-69
2021/06/16 03:58:18;;;;;;;5.50;3.80;;;15.20;80.10;;;;;;5092554;28;20787;-67
2021/06/16 04:00:45;;;;;;;4.37;3.80;;;15.30;79.80;;;;;;5096242;28;20482;-67
2021/06/16 04:03:14;;;;;;;9.67;4.63;;;15.30;80.20;;;;;;5130087;27;20449;-68
2021/06/16 04:05:42;;;;;;;6.20;3.83;;;15.40;80.10;;;;;;5126469;28;20487;-68
2021/06/16 04:08:13;;;;;;;8.40;4.23;;;15.40;80.60;;;;;;5137795;27;20436;-67
2021/06/16 04:10:43;;;;;;;3.90;3.50;;;15.30;81.10;;;;;;5134415;27;20495;-68
2021/06/16 04:13:12;;;;;;;4.00;3.33;;;15.40;81.30;;;;;;5119868;28;20495;-68
2021/06/16 04:15:39;;;;;;;3.73;2.80;;;15.50;81.40;;;;;;5120613;27;20464;-68
2021/06/16 04:18:06;;;;;;;5.57;3.63;;;15.60;81.10;;;;;;5119949;28;20434;-68
2021/06/16 04:20:34;;;;;;;12.33;4.37;;;15.70;81.10;;;;;;5123639;27;20480;-67
2021/06/16 04:23:01;;;;;;;7.80;5.37;;;15.60;80.90;;;;;;5139928;27;20444;-67
2021/06/16 04:25:28;;;;;;;4.40;4.00;;;15.70;81.50;;;;;;5137757;27;20429;-69
2021/06/16 04:27:56;;;;;;;6.50;4.40;;;15.80;81.70;;;;;;5119712;28;20476;-67
2021/06/16 04:30:25;;;;;;;4.43;3.97;;;15.90;81.50;;;;;;5120335;27;20429;-68
2021/06/16 04:32:53;;;;;;;5.40;4.37;;;16.00;81.50;;;;;;5139849;27;20433;-69
2021/06/16 04:35:20;;;;;;;7.33;4.63;;;16.10;81.30;;;;;;5138886;27;20465;-68
2021/06/16 04:37:48;;;;;;;4.80;4.03;;;16.10;82.20;;;;;;5119501;28;20441;-67
2021/06/16 04:40:15;;;;;;;4.83;3.67;;;16.20;82.30;;;;;;5119455;27;20928;-68
2021/06/16 04:42:42;;;;;;;6.00;3.50;;;16.30;82.40;;;;;;5139599;27;20995;-67
2021/06/16 04:45:10;;;;;;;4.77;4.27;;;16.40;82.10;;;;;;5140159;27;20433;-68
2021/06/16 04:47:42;;;;;;;4.30;3.73;;;16.50;82.00;;;;;;5139361;27;20443;-67
2021/06/16 04:50:12;;;;;;;5.13;4.10;;;16.50;81.30;;;;;;5140283;27;20428;-68
2021/06/16 04:52:40;;;;;;;5.73;4.40;;;16.50;81.80;;;;;;5116543;27;20448;-70
2021/06/16 04:55:08;;;;;;;6.30;4.50;;;16.50;83.40;;;;;;5098723;28;20948;-69
2021/06/16 04:57:35;;;;;;;6.70;3.90;;;16.70;83.20;;;;;;5104842;27;20757;-69
2021/06/16 05:00:03;;;;;;;5.07;3.73;;;16.70;82.90;;;;;;5098397;28;20564;-67
2021/06/16 05:02:35;;;;;;;9.40;4.63;;;16.80;83.30;;;;;;5114381;28;20494;-68
2021/06/16 05:05:05;;;;;;;7.90;3.50;;;16.90;82.70;;;;;;5112297;28;20437;-68
2021/06/16 05:07:32;;;;;;;5.40;4.87;;;16.90;83.30;;;;;;5116771;27;20443;-68
2021/06/16 05:09:59;;;;;;;4.53;3.00;;;17.00;83.20;;;;;;5116924;28;20537;-68
2021/06/16 05:12:28;;;;;;;7.53;3.97;;;17.10;83.50;;;;;;5115739;27;20441;-69
2021/06/16 05:14:55;;;;;;;6.40;3.70;;;17.20;83.30;;;;;;5116428;28;20430;-68
2021/06/16 05:17:24;;;;;;;6.00;4.40;;;17.20;82.00;;;;;;5115889;28;21385;-68
2021/06/16 05:19:57;;;;;;;6.20;3.50;;;17.30;82.50;;;;;;5112562;28;20931;-69
2021/06/16 05:22:27;;;;;;;5.63;3.57;;;17.40;82.40;;;;;;5113175;27;20481;-68
2021/06/16 05:24:55;;;;;;;5.70;4.00;;;17.50;83.00;;;;;;5104065;28;21631;-68
2021/06/16 05:27:30;;;;;;;6.13;3.97;;;17.50;83.20;;;;;;5109848;28;20866;-68
2021/06/16 05:30:09;;;;;;;8.00;4.50;;;17.70;83.30;;;;;;5110401;27;20438;-68
2021/06/16 05:32:39;;;;;;;5.83;4.87;;;17.80;83.00;;;;;;5095031;28;20431;-69
2021/06/16 05:35:09;;;;;;;4.43;3.70;;;17.90;82.10;;;;;;5103087;28;21237;-70
2021/06/16 05:37:37;;;;;;;5.83;4.70;;;18.00;81.80;;;;;;5094786;28;20443;-69
2021/06/16 05:40:06;;;;;;;8.20;4.27;;;18.10;81.70;;;;;;5101772;27;20921;-69
2021/06/16 05:42:33;;;;;;;6.60;4.60;;;18.20;81.60;;;;;;5112874;28;20547;-68
2021/06/16 05:45:00;;;;;;;6.10;4.57;;;18.30;81.80;;;;;;5112663;27;20469;-68
2021/06/16 05:47:28;;;;;;;5.80;4.83;;;18.40;82.10;;;;;;5108636;28;20441;-68
2021/06/16 05:49:55;;;;;;;7.40;4.47;;;18.50;82.00;;;;;;5112595;27;20828;-69
2021/06/16 05:52:22;;;;;;;6.67;4.20;;;18.60;81.80;;;;;;5114261;27;20434;-68
2021/06/16 05:54:50;;;;;;;6.50;4.20;;;18.80;82.60;;;;;;5098389;28;20435;-68
2021/06/16 05:57:17;;;;;;;7.67;4.43;;;18.90;82.20;;;;;;5101070;28;20921;-68
2021/06/16 05:59:44;;;;;;;6.27;4.60;;;19.00;81.70;;;;;;5112177;27;20431;-68
2021/06/16 06:02:11;;;;;;;6.80;4.90;;;19.10;81.70;;;;;;5112003;28;20474;-68
2021/06/16 06:04:39;;;;;;;7.97;4.70;;;19.20;81.20;;;;;;5112417;28;20529;-70
2021/06/16 06:07:06;;;;;;;9.53;4.50;;;19.40;80.80;;;;;;5109441;27;20431;-69
2021/06/16 06:09:33;;;;;;;8.53;4.97;;;19.40;79.90;;;;;;5095512;27;20430;-68
2021/06/16 06:12:02;;;;;;;5.40;3.73;;;19.50;80.00;;;;;;5108515;27;21000;-68
2021/06/16 06:14:29;;;;;;;6.30;4.10;;;19.60;79.90;;;;;;5112402;28;20905;-68
2021/06/16 06:16:56;;;;;;;6.97;4.27;;;19.70;79.20;;;;;;5110139;28;20438;-68
2021/06/16 06:19:29;;;;;;;5.10;3.93;;;19.80;77.40;;;;;;5107002;27;20443;-68
2021/06/16 06:21:56;;;;;;;7.60;4.23;;;19.90;76.30;;;;;;5112627;27;20912;-68
2021/06/16 06:24:24;;;;;;;5.50;3.47;;;19.90;77.10;;;;;;5106666;27;20987;-68
2021/06/16 06:26:51;;;;;;;7.40;4.57;;;20.00;77.00;;;;;;5096832;28;20471;-69
2021/06/16 06:29:19;;;;;;;5.13;3.70;;;20.10;76.20;;;;;;5098472;28;20517;-68
2021/06/16 06:31:46;;;;;;;6.60;4.40;;;20.10;76.30;;;;;;5103680;28;20434;-68
2021/06/16 06:34:18;;;;;;;4.40;3.70;;;20.30;76.80;;;;;;5109551;28;20434;-70
2021/06/16 06:36:45;;;;;;;5.03;4.00;;;20.30;76.40;;;;;;5088487;28;20438;-68
2021/06/16 06:39:14;;;;;;;7.90;3.80;;;20.40;76.80;;;;;;5097844;27;20462;-69
2021/06/16 06:41:41;;;;;;;5.63;3.73;;;20.50;76.00;;;;;;5098286;28;20473;-68
2021/06/16 06:44:08;;;;;;;4.97;3.20;;;20.70;76.40;;;;;;5102694;28;20435;-69
2021/06/16 06:46:36;;;;;;;6.00;3.10;;;20.80;75.50;;;;;;5111181;28;20526;-68
2021/06/16 06:49:03;;;;;;;7.43;3.70;;;20.90;74.60;;;;;;5113378;28;20515;-69
2021/06/16 06:51:31;;;;;;;8.20;3.30;;;21.10;74.30;;;;;;5120796;27;20498;-68
2021/06/16 06:53:58;;;;;;;4.57;3.00;;;21.20;73.60;;;;;;5134692;27;20543;-69
2021/06/16 06:56:25;;;;;;;7.73;3.30;;;21.30;73.40;;;;;;5133285;27;20437;-68
2021/06/16 06:58:52;;;;;;;4.40;3.60;;;21.40;72.80;;;;;;5118369;27;20916;-68
2021/06/16 07:01:19;;;;;;;4.40;3.10;;;21.50;72.90;;;;;;5122773;27;20470;-68
2021/06/16 07:03:47;;;;;;;4.47;3.00;;;21.70;72.40;;;;;;5128399;27;20430;-68
2021/06/16 07:06:14;;;;;;;6.57;3.30;;;21.70;70.10;;;;;;5113978;28;20775;-68
2021/06/16 07:08:41;;;;;;;6.70;3.23;;;21.80;69.40;;;;;;5117386;27;20446;-68
2021/06/16 07:11:08;;;;;;;4.87;2.87;;;21.90;68.50;;;;;;5133882;27;20991;-69
2021/06/16 07:13:37;;;;;;;9.37;3.97;;;22.00;68.80;;;;;;5130384;27;20924;-68
2021/06/16 07:16:05;;;;;;;3.43;3.07;;;22.10;68.70;;;;;;5112005;28;20487;-69
2021/06/16 07:18:32;;;;;;;5.13;4.00;;;22.20;67.40;;;;;;5113579;28;20433;-68
2021/06/16 07:21:00;;;;;;;5.10;2.87;;;22.30;68.20;;;;;;5112239;28;20434;-69
2021/06/16 07:23:27;;;;;;;4.53;3.30;;;22.40;68.50;;;;;;5115524;27;20438;-69
2021/06/16 07:25:54;;;;;;;3.97;2.87;;;22.50;67.70;;;;;;5134230;27;20437;-69
2021/06/16 07:28:21;;;;;;;4.00;2.63;;;22.60;67.70;;;;;;5122789;27;20466;-69
2021/06/16 07:30:48;;;;;;;5.60;3.50;;;22.70;67.40;;;;;;5113521;28;20436;-68
2021/06/16 07:33:16;;;;;;;4.37;3.03;;;22.80;67.10;;;;;;5122274;27;20452;-69
2021/06/16 07:35:44;;;;;;;9.50;3.47;;;23.00;67.90;;;;;;5113346;28;20430;-69
2021/06/16 07:38:12;;;;;;;6.70;3.30;;;23.10;66.60;;;;;;5114863;27;20495;-69
2021/06/16 07:40:39;;;;;;;4.53;3.00;;;23.20;63.30;;;;;;5113550;28;20474;-69
2021/06/16 07:43:06;;;;;;;4.10;3.30;;;23.30;63.20;;;;;;5123137;27;20507;-69
2021/06/16 07:45:33;;;;;;;4.10;3.00;;;23.40;63.50;;;;;;5134451;27;20461;-70
2021/06/16 07:48:00;;;;;;;4.53;3.30;;;23.50;64.10;;;;;;5121729;27;20483;-69
2021/06/16 07:50:27;;;;;;;3.50;2.77;;;23.60;63.30;;;;;;5093470;28;20480;-69
2021/06/16 07:52:54;;;;;;;4.40;2.70;;;23.70;64.40;;;;;;5101564;28;20438;-69
2021/06/16 07:55:24;;;;;;;3.83;3.40;;;23.80;64.10;;;;;;5113648;28;20466;-69
2021/06/16 07:57:51;;;;;;;3.60;2.50;;;24.00;64.10;;;;;;5111671;27;20800;-69
2021/06/16 08:00:18;;;;;;;4.60;3.17;;;24.10;65.00;;;;;;5113162;28;20928;-69
2021/06/16 08:02:45;;;;;;;7.57;3.83;;;24.20;65.00;;;;;;5119783;27;20512;-69
2021/06/16 08:05:13;;;;;;;7.63;2.60;;;24.40;65.30;;;;;;5126194;27;20454;-69
2021/06/16 08:07:40;;;;;;;4.37;2.83;;;24.50;64.70;;;;;;5116841;28;20450;-69
2021/06/16 08:10:08;;;;;;;6.37;3.30;;;24.70;64.20;;;;;;5113201;28;20460;-69
2021/06/16 08:12:36;;;;;;;5.63;2.90;;;24.80;63.10;;;;;;5110572;28;20460;-69
2021/06/16 08:15:04;;;;;;;5.50;3.20;;;24.90;63.60;;;;;;5113201;28;20478;-69
2021/06/16 08:17:30;;;;;;;6.97;3.20;;;25.00;60.40;;;;;;5112588;28;20513;-69
2021/06/16 08:19:57;;;;;;;3.93;2.53;;;25.10;59.20;;;;;;5113102;28;20500;-69
2021/06/16 08:22:24;;;;;;;5.03;3.33;;;25.10;58.30;;;;;;5112947;28;20478;-69
2021/06/16 08:24:51;;;;;;;3.80;2.67;;;25.20;58.40;;;;;;5113588;28;20830;-69
2021/06/16 08:27:20;;;;;;;3.90;2.70;;;25.30;58.60;;;;;;5131881;28;20488;-69
2021/06/16 08:29:48;;;;;;;4.53;2.53;;;25.40;57.80;;;;;;5133789;28;20473;-69
2021/06/16 08:32:21;;;;;;;3.57;2.30;;;25.40;55.80;;;;;;5114437;28;20501;-69
2021/06/16 08:34:48;;;;;;;4.70;3.40;;;25.50;56.90;;;;;;5126380;28;20454;-69
2021/06/16 08:37:14;;;;;;;4.50;2.77;;;25.60;56.70;;;;;;5133883;28;20474;-69
2021/06/16 08:39:41;;;;;;;6.37;3.07;;;25.70;56.70;;;;;;5132865;28;20480;-69
2021/06/16 08:42:10;;;;;;;7.10;2.50;;;25.80;56.90;;;;;;5133356;28;20513;-69
2021/06/16 08:44:38;;;;;;;9.17;2.77;;;25.90;57.20;;;;;;5117764;28;20932;-69
2021/06/16 08:47:06;;;;;;;5.33;2.73;;;26.10;58.20;;;;;;5112886;28;20849;-69
2021/06/16 08:49:34;;;;;;;7.60;3.20;;;26.20;57.60;;;;;;5125194;28;20888;-70
2021/06/16 08:52:02;;;;;;;4.47;2.97;;;26.30;54.80;;;;;;5133240;28;20440;-69
2021/06/16 08:54:30;;;;;;;8.30;2.63;;;26.40;55.50;;;;;;5114888;28;20449;-69
2021/06/16 08:56:59;;;;;;;6.53;2.93;;;26.50;56.40;;;;;;5116491;28;20551;-69
2021/06/16 08:59:27;;;;;;;4.00;2.37;;;26.70;55.90;;;;;;5126596;27;20439;-70
2021/06/16 09:01:54;;;;;;;4.20;2.57;;;26.80;56.00;;;;;;5135598;27;20536;-71
2021/06/16 09:04:48;;;;;;;6.27;2.57;;;26.90;54.90;;;;;;5119962;27;20464;-69
2021/06/16 09:07:16;;;;;;;3.57;2.10;;;27.10;53.50;;;;;;5119421;27;20432;-70
2021/06/16 09:09:43;;;;;;;3.47;2.20;;;27.30;52.80;;;;;;5136774;27;20435;-70
2021/06/16 09:12:13;;;;;;;3.20;2.40;;;27.40;50.70;;;;;;5134087;27;20440;-69
2021/06/16 09:14:52;;;;;;;4.93;2.40;;;27.50;48.30;;;;;;5115982;28;20445;-70
2021/06/16 09:17:24;;;;;;;4.70;2.33;;;27.60;47.80;;;;;;5134836;27;20432;-69
2021/06/16 09:19:55;;;;;;;3.20;2.43;;;27.70;47.50;;;;;;5136686;27;20436;-69
2021/06/16 09:22:29;;;;;;;5.27;2.47;;;27.90;45.40;;;;;;5101602;27;20867;-69
2021/06/16 09:25:03;;;;;;;4.53;2.70;;;27.90;43.80;;;;;;5125293;27;20442;-70
2021/06/16 09:27:50;;;;;;;4.17;2.53;;;28.10;43.10;;;;;;5112854;28;20530;-69
2021/06/16 09:30:35;;;;;;;3.10;2.10;;;28.20;45.20;;;;;;5111523;28;20442;-70
2021/06/16 09:33:08;;;;;;;4.50;2.50;;;28.40;44.20;;;;;;5118365;27;20438;-69
2021/06/16 09:35:42;;;;;;;4.50;2.30;;;28.40;43.10;;;;;;5110618;28;20483;-69
2021/06/16 09:38:14;;;;;;;3.80;2.30;;;28.60;42.20;;;;;;5114352;28;20438;-70
2021/06/16 09:40:43;;;;;;;5.33;2.43;;;28.70;42.60;;;;;;5118017;27;20490;-69
2021/06/16 09:43:12;;;;;;;5.10;2.60;;;28.80;44.70;;;;;;5105129;27;20561;-70
2021/06/16 09:45:41;;;;;;;4.20;2.60;;;28.90;43.90;;;;;;5111487;27;20435;-69
2021/06/16 09:48:27;;;;;;;5.10;2.50;;;29.00;44.60;;;;;;5095791;28;20446;-69
2021/06/16 09:51:10;;;;;;;6.63;2.73;;;29.10;43.90;;;;;;5099313;27;20439;-71
2021/06/16 09:53:57;;;;;;;4.80;2.00;;;29.10;42.20;;;;;;5111558;28;20499;-69
2021/06/16 09:56:27;;;;;;;5.13;2.17;;;29.20;41.60;;;;;;5112254;27;20440;-69
2021/06/16 09:58:56;;;;;;;3.30;2.00;;;29.20;41.00;;;;;;5111451;28;20434;-70
2021/06/16 10:01:47;;;;;;;3.40;2.37;;;29.20;41.70;;;;;;5108703;28;20427;-70
2021/06/16 10:04:33;;;;;;;3.70;2.50;;;29.30;39.70;;;;;;5108148;28;20538;-70
2021/06/16 10:07:25;;;;;;;3.33;2.00;;;29.30;38.90;;;;;;5094584;28;20494;-70
2021/06/16 10:09:58;;;;;;;3.50;2.80;;;29.30;37.90;;;;;;5108809;27;20910;-69
2021/06/16 10:12:29;;;;;;;2.40;1.80;;;29.40;40.20;;;;;;5112633;28;20495;-69
2021/06/16 10:14:57;;;;;;;3.73;2.07;;;29.50;41.10;;;;;;5112367;27;20948;-70
2021/06/16 10:17:25;;;;;;;4.23;1.53;;;29.60;40.30;;;;;;5111968;28;20438;-69
2021/06/16 10:19:56;;;;;;;4.57;2.30;;;29.70;39.60;;;;;;5112046;27;20539;-69
2021/06/16 10:22:28;;;;;;;3.73;2.53;;;29.80;39.20;;;;;;5101841;27;20468;-69
2021/06/16 10:24:55;;;;;;;3.23;2.07;;;29.90;39.10;;;;;;5108035;28;20432;-70
2021/06/16 10:27:30;;;;;;;6.83;2.37;;;30.00;41.00;;;;;;5111780;28;20465;-70
2021/06/16 10:30:05;;;;;;;3.03;2.03;;;30.10;42.20;;;;;;5114032;28;20491;-70
2021/06/16 10:32:40;;;;;;;3.10;2.10;;;30.30;41.40;;;;;;5112233;28;20442;-69
2021/06/16 10:35:08;;;;;;;5.70;2.20;;;30.40;40.60;;;;;;5105844;28;20439;-69
2021/06/16 10:37:38;;;;;;;5.70;1.90;;;30.50;35.80;;;;;;5113449;27;20440;-69
2021/06/16 10:40:31;;;;;;;3.73;2.40;;;30.50;34.70;;;;;;5134087;27;20441;-70
2021/06/16 10:43:18;;;;;;;3.07;1.83;;;30.60;34.20;;;;;;5134395;27;20507;-69
2021/06/16 10:45:53;;;;;;;6.60;1.67;;;30.60;36.20;;;;;;5128205;27;20430;-69
2021/06/16 10:48:20;;;;;;;3.37;1.90;;;30.70;33.40;;;;;;5115039;28;20490;-69
2021/06/16 10:51:01;;;;;;;3.70;1.90;;;30.70;33.30;;;;;;5120007;27;20448;-69
2021/06/16 10:53:30;;;;;;;3.30;2.23;;;30.80;33.70;;;;;;5118533;27;20495;-69
2021/06/16 10:56:09;;;;;;;3.67;2.83;;;30.90;34.80;;;;;;5121141;27;20436;-69
2021/06/16 10:58:47;;;;;;;3.90;2.20;;;31.10;35.80;;;;;;5112171;27;20490;-69
2021/06/16 11:01:16;;;;;;;3.43;2.50;;;31.20;33.60;;;;;;5122755;27;20440;-69
2021/06/16 11:04:28;;;;;;;3.23;2.00;;;31.30;33.50;;;;;;5133928;27;20519;-70
2021/06/16 11:06:55;;;;;;;3.13;2.00;;;31.50;33.50;;;;;;5034047;28;20442;-70
2021/06/16 11:09:54;;;;;;;4.80;2.73;;;31.60;33.70;;;;;;5088795;28;20482;-69
2021/06/16 11:12:31;;;;;;;3.80;2.00;;;31.80;34.00;;;;;;5110345;27;20462;-69
2021/06/16 11:14:59;;;;;;;4.50;2.50;;;32.00;32.70;;;;;;5111445;28;20486;-68
2021/06/16 11:17:46;;;;;;;2.30;1.73;;;32.10;33.50;;;;;;5101885;27;20812;-68
2021/06/16 11:20:20;;;;;;;3.70;2.07;;;32.20;32.70;;;;;;5093303;28;20430;-70
2021/06/16 11:22:53;;;;;;;3.87;1.90;;;32.30;31.50;;;;;;5109869;27;20501;-69
2021/06/16 11:25:36;;;;;;;3.03;2.00;;;32.40;31.80;;;;;;5094977;27;20442;-69
2021/06/16 11:28:11;;;;;;;4.33;2.23;;;32.50;30.40;;;;;;5110455;28;20486;-69
2021/06/16 11:30:57;;;;;;;2.20;1.63;;;32.50;31.20;;;;;;5111323;28;20448;-69
2021/06/16 11:33:46;;;;;;;5.50;2.13;;;32.50;29.40;;;;;;5111335;28;20469;-68
2021/06/16 11:36:17;;;;;;;5.53;2.07;;;32.60;29.90;;;;;;5106881;27;20446;-69
2021/06/16 11:38:54;;;;;;;6.10;1.80;;;32.60;30.70;;;;;;5110388;27;20533;-69
2021/06/16 11:41:24;;;;;;;3.00;1.70;;;32.60;31.90;;;;;;5096933;28;20427;-69
2021/06/16 11:43:53;;;;;;;2.70;2.00;;;32.50;30.50;;;;;;5102207;27;20482;-69
2021/06/16 11:46:26;;;;;;;3.53;2.10;;;32.50;30.70;;;;;;5110748;28;20772;-69
2021/06/16 11:49:01;;;;;;;3.87;2.10;;;32.50;32.00;;;;;;5106839;27;20445;-69
2021/06/16 11:51:30;;;;;;;2.43;1.73;;;32.50;32.00;;;;;;5110687;28;20461;-69
2021/06/16 11:54:20;;;;;;;2.73;1.87;;;32.50;31.00;;;;;;5110091;28;20442;-70
2021/06/16 11:56:51;;;;;;;2.20;1.60;;;32.50;29.60;;;;;;5110233;28;20794;-70
2021/06/16 11:59:31;;;;;;;2.80;1.83;;;32.50;30.00;;;;;;5106970;28;20430;-69
2021/06/16 12:02:09;;;;;;;2.50;1.97;;;32.50;30.90;;;;;;5110075;28;20481;-70
2021/06/16 12:04:47;;;;;;;2.90;2.00;;;32.60;32.30;;;;;;5108039;28;21370;-71
2021/06/16 12:07:14;;;;;;;4.47;1.80;;;32.60;30.80;;;;;;5109985;28;20429;-69
2021/06/16 12:09:45;;;;;;;3.47;1.70;;;32.50;28.00;;;;;;5094996;28;20484;-69
2021/06/16 12:12:14;;;;;;;2.93;1.80;;;32.50;28.80;;;;;;5107006;28;20503;-69
2021/06/16 12:14:41;;;;;;;2.53;1.60;;;32.60;29.50;;;;;;5110821;28;20477;-69
2021/06/16 12:17:08;;;;;;;4.10;1.90;;;32.60;30.10;;;;;;5110305;28;20438;-69
2021/06/16 12:19:36;;;;;;;2.70;1.57;;;32.60;29.20;;;;;;5109707;28;20502;-69
2021/06/16 12:22:05;;;;;;;5.40;1.73;;;32.60;26.80;;;;;;5110343;28;20921;-69
2021/06/16 12:24:34;;;;;;;4.50;2.23;;;32.50;28.10;;;;;;5110433;28;20972;-69
2021/06/16 12:27:08;;;;;;;3.30;2.20;;;32.40;29.20;;;;;;5109523;28;20470;-69
2021/06/16 12:29:39;;;;;;;3.90;2.03;;;32.40;31.30;;;;;;5114289;27;20944;-69
2021/06/16 12:32:08;;;;;;;7.00;2.10;;;32.40;28.50;;;;;;5114640;28;20434;-69
2021/06/16 12:34:51;;;;;;;2.50;1.50;;;32.30;27.70;;;;;;5110355;27;20464;-70
2021/06/16 12:37:19;;;;;;;2.50;2.10;;;32.20;28.80;;;;;;5113887;28;20461;-69
2021/06/16 12:39:53;;;;;;;3.00;2.00;;;32.10;28.30;;;;;;5097277;27;20434;-69
2021/06/16 12:42:20;;;;;;;2.40;1.50;;;32.10;29.40;;;;;;5096351;28;20442;-69
2021/06/16 12:44:49;;;;;;;2.47;1.50;;;32.10;29.60;;;;;;5112842;27;20473;-69
2021/06/16 12:47:25;;;;;;;3.80;2.10;;;32.10;30.60;;;;;;5113166;28;20434;-69
2021/06/16 12:49:53;;;;;;;3.10;1.73;;;32.00;29.90;;;;;;5111869;27;20438;-69
2021/06/16 12:52:38;;;;;;;2.90;1.60;;;32.00;30.30;;;;;;5113139;28;20437;-70
2021/06/16 12:55:11;;;;;;;2.97;1.93;;;31.90;28.80;;;;;;5108235;27;20452;-69
2021/06/16 12:57:43;;;;;;;2.90;2.00;;;31.80;29.70;;;;;;5107908;28;20439;-69
2021/06/16 13:00:17;;;;;;;4.50;2.17;;;31.80;28.20;;;;;;5095148;28;20940;-69
2021/06/16 13:02:45;;;;;;;5.43;2.40;;;31.70;29.00;;;;;;5108613;28;20475;-69
2021/06/16 13:05:13;;;;;;;3.47;2.17;;;31.70;30.00;;;;;;5113876;27;20474;-69